sensor_id;sensor_type;location;lat;lon;timestamp;pressure;altitude;pressure_sealevel;temperature;humidity
49943;BME280;36011;53.362;58.948;2022-10-31T00:01:37;95631.22;;;1.11;80.81
49943;BME280;36011;53.362;58.948;2022-10-31T00:04:44;95629.34;;;0.96;80.98
49943;BME280;36011;53.362;58.948;2022-10-31T00:07:53;95624.53;;;0.88;80.91
49943;BME280;36011;53.362;58.948;2022-10-31T00:11:01;95635.44;;;0.95;80.90
49943;BME280;36011;53.362;58.948;2022-10-31T00:14:03;95628.00;;;0.87;81.05
49943;BME280;36011;53.362;58.948;2022-10-31T00:17:10;95617.78;;;1.03;81.50
49943;BME280;36011;53.362;58.948;2022-10-31T00:20:14;95620.59;;;0.98;80.99
49943;BME280;36011;53.362;58.948;2022-10-31T00:23:21;95600.84;;;0.96;81.19
49943;BME280;36011;53.362;58.948;2022-10-31T00:26:22;95601.00;;;0.93;81.69
49943;BME280;36011;53.362;58.948;2022-10-31T00:29:26;95604.22;;;0.98;81.58
49943;BME280;36011;53.362;58.948;2022-10-31T00:32:31;95588.81;;;0.95;81.98
49943;BME280;36011;53.362;58.948;2022-10-31T00:35:35;95585.44;;;0.93;81.84
49943;BME280;36011;53.362;58.948;2022-10-31T00:38:36;95597.38;;;0.97;82.15
49943;BME280;36011;53.362;58.948;2022-10-31T00:42:01;95589.91;;;1.08;82.10
49943;BME280;36011;53.362;58.948;2022-10-31T00:45:03;95593.91;;;0.96;82.86
49943;BME280;36011;53.362;58.948;2022-10-31T00:48:05;95589.28;;;1.03;82.81
49943;BME280;36011;53.362;58.948;2022-10-31T00:51:08;95590.69;;;1.27;81.96
49943;BME280;36011;53.362;58.948;2022-10-31T00:54:12;95584.44;;;1.14;82.57
49943;BME280;36011;53.362;58.948;2022-10-31T00:57:16;95572.69;;;1.07;83.28
49943;BME280;36011;53.362;58.948;2022-10-31T01:00:20;95576.97;;;1.08;83.04
49943;BME280;36011;53.362;58.948;2022-10-31T01:03:26;95571.81;;;1.25;82.97
49943;BME280;36011;53.362;58.948;2022-10-31T01:06:33;95571.81;;;1.25;82.88
49943;BME280;36011;53.362;58.948;2022-10-31T01:09:40;95564.50;;;1.33;83.45
49943;BME280;36011;53.362;58.948;2022-10-31T01:12:49;95569.53;;;1.37;82.77
49943;BME280;36011;53.362;58.948;2022-10-31T01:15:58;95567.66;;;1.39;83.58
49943;BME280;36011;53.362;58.948;2022-10-31T01:18:59;95582.16;;;1.60;82.67
49943;BME280;36011;53.362;58.948;2022-10-31T01:22:03;95567.06;;;1.51;83.21
49943;BME280;36011;53.362;58.948;2022-10-31T01:25:05;95563.09;;;1.61;82.80
49943;BME280;36011;53.362;58.948;2022-10-31T01:28:10;95557.75;;;1.47;83.15
49943;BME280;36011;53.362;58.948;2022-10-31T01:31:11;95552.34;;;1.51;83.23
49943;BME280;36011;53.362;58.948;2022-10-31T01:34:19;95542.34;;;1.61;82.87
49943;BME280;36011;53.362;58.948;2022-10-31T01:37:25;95541.75;;;1.73;82.55
49943;BME280;36011;53.362;58.948;2022-10-31T01:40:29;95532.53;;;1.68;83.03
49943;BME280;36011;53.362;58.948;2022-10-31T01:43:46;95557.47;;;1.70;82.81
49943;BME280;36011;53.362;58.948;2022-10-31T01:47:00;95547.59;;;1.77;82.43
49943;BME280;36011;53.362;58.948;2022-10-31T01:50:11;95542.25;;;1.80;82.29
49943;BME280;36011;53.362;58.948;2022-10-31T01:53:16;95532.56;;;1.84;81.44
49943;BME280;36011;53.362;58.948;2022-10-31T01:56:24;95538.22;;;1.74;81.13
49943;BME280;36011;53.362;58.948;2022-10-31T01:59:32;95525.06;;;1.62;81.77
49943;BME280;36011;53.362;58.948;2022-10-31T02:02:42;95544.03;;;1.62;81.75
49943;BME280;36011;53.362;58.948;2022-10-31T02:05:53;95532.09;;;1.42;82.01
49943;BME280;36011;53.362;58.948;2022-10-31T02:09:00;95539.25;;;1.37;81.86
49943;BME280;36011;53.362;58.948;2022-10-31T02:12:05;95528.56;;;1.43;82.02
49943;BME280;36011;53.362;58.948;2022-10-31T02:15:12;95526.34;;;1.35;81.91
49943;BME280;36011;53.362;58.948;2022-10-31T02:18:19;95521.16;;;1.35;81.63
49943;BME280;36011;53.362;58.948;2022-10-31T02:21:42;95518.13;;;1.27;82.29
49943;BME280;36011;53.362;58.948;2022-10-31T02:25:23;95519.50;;;1.17;82.19
49943;BME280;36011;53.362;58.948;2022-10-31T02:29:10;95523.19;;;1.30;82.10
49943;BME280;36011;53.362;58.948;2022-10-31T02:32:29;95528.13;;;1.18;82.10
49943;BME280;36011;53.362;58.948;2022-10-31T02:36:24;95529.25;;;1.12;82.23
49943;BME280;36011;53.362;58.948;2022-10-31T02:39:26;95523.31;;;1.27;82.51
49943;BME280;36011;53.362;58.948;2022-10-31T02:42:50;95524.44;;;1.22;82.44
49943;BME280;36011;53.362;58.948;2022-10-31T02:46:01;95526.44;;;1.17;82.62
49943;BME280;36011;53.362;58.948;2022-10-31T02:49:16;95526.81;;;1.09;82.19
49943;BME280;36011;53.362;58.948;2022-10-31T02:52:28;95516.91;;;1.17;82.69
49943;BME280;36011;53.362;58.948;2022-10-31T02:58:42;95519.50;;;1.00;83.06
49943;BME280;36011;53.362;58.948;2022-10-31T03:08:32;95526.19;;;1.04;82.47
49943;BME280;36011;53.362;58.948;2022-10-31T03:11:58;95530.59;;;1.02;83.44
49943;BME280;36011;53.362;58.948;2022-10-31T03:15:47;95522.94;;;1.00;82.87
49943;BME280;36011;53.362;58.948;2022-10-31T03:18:40;95533.19;;;1.02;83.09
49943;BME280;36011;53.362;58.948;2022-10-31T03:21:56;95532.00;;;0.92;83.28
49943;BME280;36011;53.362;58.948;2022-10-31T03:25:03;95527.59;;;0.94;83.16
49943;BME280;36011;53.362;58.948;2022-10-31T03:28:12;95528.88;;;1.02;83.53
49943;BME280;36011;53.362;58.948;2022-10-31T03:31:18;95512.19;;;1.08;83.52
49943;BME280;36011;53.362;58.948;2022-10-31T03:34:25;95526.34;;;1.01;83.21
49943;BME280;36011;53.362;58.948;2022-10-31T03:37:36;95528.56;;;1.08;83.58
49943;BME280;36011;53.362;58.948;2022-10-31T03:40:43;95539.75;;;0.92;83.55
49943;BME280;36011;53.362;58.948;2022-10-31T03:44:09;95524.69;;;1.00;84.12
49943;BME280;36011;53.362;58.948;2022-10-31T03:47:15;95506.78;;;0.95;83.81
49943;BME280;36011;53.362;58.948;2022-10-31T03:50:20;95507.03;;;1.08;83.99
49943;BME280;36011;53.362;58.948;2022-10-31T03:53:31;95498.63;;;1.03;83.84
49943;BME280;36011;53.362;58.948;2022-10-31T03:56:36;95512.94;;;0.93;83.34
49943;BME280;36011;53.362;58.948;2022-10-31T03:59:45;95511.13;;;0.95;83.68
49943;BME280;36011;53.362;58.948;2022-10-31T04:06:08;95498.47;;;1.06;83.49
49943;BME280;36011;53.362;58.948;2022-10-31T04:09:15;95498.94;;;0.97;83.53
49943;BME280;36011;53.362;58.948;2022-10-31T04:12:23;95503.13;;;0.99;83.42
49943;BME280;36011;53.362;58.948;2022-10-31T04:15:29;95493.81;;;0.95;84.01
49943;BME280;36011;53.362;58.948;2022-10-31T04:18:35;95498.94;;;0.97;83.74
49943;BME280;36011;53.362;58.948;2022-10-31T04:21:40;95496.94;;;1.02;83.31
49943;BME280;36011;53.362;58.948;2022-10-31T04:24:48;95493.66;;;0.98;83.37
49943;BME280;36011;53.362;58.948;2022-10-31T04:27:53;95497.25;;;0.96;83.53
49943;BME280;36011;53.362;58.948;2022-10-31T04:30:58;95502.72;;;1.07;84.15
49943;BME280;36011;53.362;58.948;2022-10-31T04:34:02;95502.00;;;1.05;83.97
49943;BME280;36011;53.362;58.948;2022-10-31T04:37:06;95498.63;;;1.03;83.83
49943;BME280;36011;53.362;58.948;2022-10-31T04:40:09;95499.78;;;0.97;83.53
49943;BME280;36011;53.362;58.948;2022-10-31T04:43:11;95499.78;;;0.97;84.16
49943;BME280;36011;53.362;58.948;2022-10-31T04:46:22;95497.72;;;1.04;83.46
49943;BME280;36011;53.362;58.948;2022-10-31T04:49:27;95496.50;;;1.11;83.53
49943;BME280;36011;53.362;58.948;2022-10-31T04:52:29;95486.31;;;1.08;83.76
49943;BME280;36011;53.362;58.948;2022-10-31T04:55:31;95497.25;;;1.13;83.67
49943;BME280;36011;53.362;58.948;2022-10-31T04:58:32;95473.41;;;1.24;83.64
49943;BME280;36011;53.362;58.948;2022-10-31T05:01:34;95495.53;;;1.14;83.04
49943;BME280;36011;53.362;58.948;2022-10-31T05:04:37;95489.19;;;1.19;83.25
49943;BME280;36011;53.362;58.948;2022-10-31T05:07:43;95490.50;;;1.10;83.89
49943;BME280;36011;53.362;58.948;2022-10-31T05:10:45;95486.16;;;1.11;84.05
49943;BME280;36011;53.362;58.948;2022-10-31T05:13:48;95480.19;;;1.26;83.28
49943;BME280;36011;53.362;58.948;2022-10-31T05:16:50;95472.19;;;1.31;84.14
49943;BME280;36011;53.362;58.948;2022-10-31T05:19:51;95472.69;;;1.38;83.80
49943;BME280;36011;53.362;58.948;2022-10-31T05:22:57;95469.19;;;1.39;83.46
49943;BME280;36011;53.362;58.948;2022-10-31T05:26:01;95474.53;;;1.35;83.43
49943;BME280;36011;53.362;58.948;2022-10-31T05:29:04;95486.91;;;1.30;83.65
49943;BME280;36011;53.362;58.948;2022-10-31T05:32:06;95486.44;;;1.40;83.86
49943;BME280;36011;53.362;58.948;2022-10-31T05:35:11;95484.00;;;1.37;83.36
49943;BME280;36011;53.362;58.948;2022-10-31T05:38:15;95485.34;;;1.44;83.42
49943;BME280;36011;53.362;58.948;2022-10-31T05:41:21;95469.44;;;1.34;83.54
49943;BME280;36011;53.362;58.948;2022-10-31T05:44:22;95461.41;;;1.39;83.24
49943;BME280;36011;53.362;58.948;2022-10-31T05:47:24;95491.75;;;1.54;83.27
49943;BME280;36011;53.362;58.948;2022-10-31T05:50:30;95499.69;;;1.51;83.23
49943;BME280;36011;53.362;58.948;2022-10-31T05:53:32;95486.78;;;1.49;83.42
49943;BME280;36011;53.362;58.948;2022-10-31T05:56:33;95483.97;;;1.54;83.65
49943;BME280;36011;53.362;58.948;2022-10-31T05:59:42;95475.09;;;1.58;83.16
49943;BME280;36011;53.362;58.948;2022-10-31T06:02:49;95490.03;;;1.70;82.58
49943;BME280;36011;53.362;58.948;2022-10-31T06:05:50;95471.44;;;1.62;83.09
49943;BME280;36011;53.362;58.948;2022-10-31T06:08:52;95476.16;;;1.71;83.02
49943;BME280;36011;53.362;58.948;2022-10-31T06:11:55;95478.91;;;1.68;83.55
49943;BME280;36011;53.362;58.948;2022-10-31T06:15:03;95469.75;;;1.78;83.27
49943;BME280;36011;53.362;58.948;2022-10-31T06:18:12;95471.06;;;1.86;82.26
49943;BME280;36011;53.362;58.948;2022-10-31T06:21:14;95471.56;;;1.92;82.19
49943;BME280;36011;53.362;58.948;2022-10-31T06:24:15;95462.63;;;1.98;82.61
49943;BME280;36011;53.362;58.948;2022-10-31T06:27:17;95476.38;;;2.00;81.61
49943;BME280;36011;53.362;58.948;2022-10-31T06:30:18;95476.19;;;2.03;81.68
49943;BME280;36011;53.362;58.948;2022-10-31T06:33:22;95478.97;;;2.32;81.08
49943;BME280;36011;53.362;58.948;2022-10-31T06:36:26;95486.78;;;2.16;81.61
49943;BME280;36011;53.362;58.948;2022-10-31T06:39:28;95486.00;;;2.14;81.12
49943;BME280;36011;53.362;58.948;2022-10-31T06:42:31;95479.88;;;2.15;81.38
49943;BME280;36011;53.362;58.948;2022-10-31T06:45:35;95486.78;;;2.16;80.88
49943;BME280;36011;53.362;58.948;2022-10-31T06:48:44;95477.72;;;2.23;80.50
49943;BME280;36011;53.362;58.948;2022-10-31T06:51:52;95481.41;;;2.19;80.99
49943;BME280;36011;53.362;58.948;2022-10-31T06:54:53;95474.47;;;2.19;81.72
49943;BME280;36011;53.362;58.948;2022-10-31T06:57:56;95471.94;;;2.34;81.29
49943;BME280;36011;53.362;58.948;2022-10-31T07:01:02;95478.41;;;2.27;81.92
49943;BME280;36011;53.362;58.948;2022-10-31T07:04:09;95492.97;;;2.45;81.22
49943;BME280;36011;53.362;58.948;2022-10-31T07:07:13;95487.63;;;2.32;81.29
49943;BME280;36011;53.362;58.948;2022-10-31T07:10:17;95492.03;;;2.46;81.42
49943;BME280;36011;53.362;58.948;2022-10-31T07:13:21;95473.38;;;2.55;81.51
49943;BME280;36011;53.362;58.948;2022-10-31T07:16:28;95476.22;;;2.66;80.83
49943;BME280;36011;53.362;58.948;2022-10-31T07:19:33;95499.06;;;2.76;80.71
49943;BME280;36011;53.362;58.948;2022-10-31T07:22:40;95491.09;;;2.79;80.22
49943;BME280;36011;53.362;58.948;2022-10-31T07:25:41;95499.66;;;2.81;80.39
49943;BME280;36011;53.362;58.948;2022-10-31T07:28:48;95503.16;;;2.80;80.13
49943;BME280;36011;53.362;58.948;2022-10-31T07:31:49;95490.78;;;2.69;80.62
49943;BME280;36011;53.362;58.948;2022-10-31T07:34:53;95494.81;;;2.75;80.55
49943;BME280;36011;53.362;58.948;2022-10-31T07:37:55;95494.03;;;2.73;81.06
49943;BME280;36011;53.362;58.948;2022-10-31T07:41:02;95484.06;;;2.81;81.19
49943;BME280;36011;53.362;58.948;2022-10-31T07:44:03;95488.56;;;2.93;80.95
49943;BME280;36011;53.362;58.948;2022-10-31T07:47:05;95493.56;;;2.96;81.10
49943;BME280;36011;53.362;58.948;2022-10-31T07:50:11;95486.00;;;3.07;80.46
49943;BME280;36011;53.362;58.948;2022-10-31T09:03:17;95468.06;;;4.33;85.38
49943;BME280;36011;53.362;58.948;2022-10-31T09:06:24;95437.38;;;4.24;83.89
49943;BME280;36011;53.362;58.948;2022-10-31T09:09:28;95466.84;;;4.66;83.52
49943;BME280;36011;53.362;58.948;2022-10-31T09:12:34;95483.03;;;4.71;82.58
49943;BME280;36011;53.362;58.948;2022-10-31T09:15:42;95460.69;;;4.67;82.34
49943;BME280;36011;53.362;58.948;2022-10-31T09:18:50;95454.31;;;4.85;81.09
49943;BME280;36011;53.362;58.948;2022-10-31T09:21:58;95464.69;;;4.72;80.36
49943;BME280;36011;53.362;58.948;2022-10-31T09:25:03;95473.50;;;4.57;80.81
49943;BME280;36011;53.362;58.948;2022-10-31T09:28:09;95443.06;;;4.31;81.17
49943;BME280;36011;53.362;58.948;2022-10-31T09:31:15;95440.47;;;4.31;80.83
49943;BME280;36011;53.362;58.948;2022-10-31T09:34:16;95480.59;;;4.41;80.92
49943;BME280;36011;53.362;58.948;2022-10-31T09:37:23;95468.97;;;4.32;81.14
49943;BME280;36011;53.362;58.948;2022-10-31T09:43:57;95471.41;;;4.35;81.56
49943;BME280;36011;53.362;58.948;2022-10-31T09:50:25;95468.75;;;4.49;81.85
49943;BME280;36011;53.362;58.948;2022-10-31T09:53:45;95468.22;;;4.44;82.25
49943;BME280;36011;53.362;58.948;2022-10-31T09:56:55;95483.63;;;4.62;81.78
49943;BME280;36011;53.362;58.948;2022-10-31T10:00:01;95485.38;;;4.61;81.86
49943;BME280;36011;53.362;58.948;2022-10-31T10:06:34;95491.59;;;4.73;81.92
49943;BME280;36011;53.362;58.948;2022-10-31T10:09:39;95516.63;;;4.76;81.70
49943;BME280;36011;53.362;58.948;2022-10-31T10:20:15;95501.88;;;4.62;82.12
49943;BME280;36011;53.362;58.948;2022-10-31T10:26:54;95505.63;;;4.43;83.23
49943;BME280;36011;53.362;58.948;2022-10-31T10:30:18;95489.41;;;4.53;82.47
49943;BME280;36011;53.362;58.948;2022-10-31T10:33:32;95475.19;;;4.44;83.24
49943;BME280;36011;53.362;58.948;2022-10-31T10:40:19;95482.75;;;4.34;83.77
49943;BME280;36011;53.362;58.948;2022-10-31T10:43:35;95478.09;;;4.39;83.62
49943;BME280;36011;53.362;58.948;2022-10-31T10:46:51;95482.72;;;4.48;83.42
49943;BME280;36011;53.362;58.948;2022-10-31T10:50:27;95483.16;;;4.28;83.77
49943;BME280;36011;53.362;58.948;2022-10-31T10:54:31;95489.66;;;4.21;84.20
49943;BME280;36011;53.362;58.948;2022-10-31T10:57:27;95484.34;;;4.37;84.18
49943;BME280;36011;53.362;58.948;2022-10-31T11:00:39;95494.47;;;4.27;84.31
49943;BME280;36011;53.362;58.948;2022-10-31T11:03:51;95496.72;;;4.19;84.53
49943;BME280;36011;53.362;58.948;2022-10-31T11:07:02;95499.88;;;4.24;84.72
49943;BME280;36011;53.362;58.948;2022-10-31T11:10:06;95521.63;;;4.37;84.04
49943;BME280;36011;53.362;58.948;2022-10-31T11:13:26;95504.16;;;4.39;83.57
49943;BME280;36011;53.362;58.948;2022-10-31T11:16:40;95504.88;;;4.27;83.56
49943;BME280;36011;53.362;58.948;2022-10-31T11:19:47;95510.84;;;4.15;84.43
49943;BME280;36011;53.362;58.948;2022-10-31T11:23:01;95511.13;;;4.10;84.90
49943;BME280;36011;53.362;58.948;2022-10-31T11:26:05;95500.81;;;4.23;83.94
49943;BME280;36011;53.362;58.948;2022-10-31T11:29:23;95499.13;;;4.08;84.58
49943;BME280;36011;53.362;58.948;2022-10-31T11:32:33;95507.50;;;4.13;84.89
49943;BME280;36011;53.362;58.948;2022-10-31T11:35:41;95507.31;;;4.16;84.96
49943;BME280;36011;53.362;58.948;2022-10-31T11:38:44;95509.91;;;4.16;85.28
49943;BME280;36011;53.362;58.948;2022-10-31T11:42:13;95507.13;;;4.19;84.96
49943;BME280;36011;53.362;58.948;2022-10-31T11:48:29;95516.41;;;4.37;84.35
49943;BME280;36011;53.362;58.948;2022-10-31T11:51:36;95516.63;;;4.20;84.94
49943;BME280;36011;53.362;58.948;2022-10-31T11:55:26;95522.19;;;4.28;85.10
49943;BME280;36011;53.362;58.948;2022-10-31T11:58:26;95513.38;;;4.16;85.51
49943;BME280;36011;53.362;58.948;2022-10-31T12:01:32;95503.78;;;4.17;85.71
49943;BME280;36011;53.362;58.948;2022-10-31T12:04:43;95504.16;;;4.39;85.08
49943;BME280;36011;53.362;58.948;2022-10-31T12:07:48;95509.91;;;4.30;85.76
49943;BME280;36011;53.362;58.948;2022-10-31T12:17:45;95492.69;;;4.42;85.28
49943;BME280;36011;53.362;58.948;2022-10-31T12:31:37;95499.81;;;4.53;86.28
49943;BME280;36011;53.362;58.948;2022-10-31T12:34:56;95514.19;;;4.45;86.79
49943;BME280;36011;53.362;58.948;2022-10-31T12:44:58;95507.94;;;4.48;86.81
49943;BME280;36011;53.362;58.948;2022-10-31T12:52:19;95504.47;;;4.62;86.65
49943;BME280;36011;53.362;58.948;2022-10-31T12:58:34;95484.19;;;4.53;86.60
49943;BME280;36011;53.362;58.948;2022-10-31T13:02:03;95489.34;;;4.67;86.75
49943;BME280;36011;53.362;58.948;2022-10-31T13:05:34;95489.34;;;4.81;86.29
49943;BME280;36011;53.362;58.948;2022-10-31T13:11:56;95488.69;;;4.78;86.64
49943;BME280;36011;53.362;58.948;2022-10-31T13:15:11;95494.56;;;4.81;86.88
49943;BME280;36011;53.362;58.948;2022-10-31T13:18:38;95486.69;;;4.95;87.02
49943;BME280;36011;53.362;58.948;2022-10-31T13:31:27;95484.59;;;5.01;87.42
49943;BME280;36011;53.362;58.948;2022-10-31T13:34:36;95490.66;;;5.01;87.54
49943;BME280;36011;53.362;58.948;2022-10-31T13:37:48;95496.06;;;4.98;87.67
49943;BME280;36011;53.362;58.948;2022-10-31T13:41:02;95495.91;;;5.14;87.93
49943;BME280;36011;53.362;58.948;2022-10-31T13:44:21;95487.88;;;5.17;87.44
49943;BME280;36011;53.362;58.948;2022-10-31T13:47:31;95493.44;;;5.25;87.70
49943;BME280;36011;53.362;58.948;2022-10-31T13:50:35;95492.88;;;5.20;87.68
49943;BME280;36011;53.362;58.948;2022-10-31T13:53:41;95478.72;;;5.24;87.54
49943;BME280;36011;53.362;58.948;2022-10-31T13:56:50;95487.81;;;5.31;87.33
49943;BME280;36011;53.362;58.948;2022-10-31T14:03:21;95494.50;;;5.35;87.32
49943;BME280;36011;53.362;58.948;2022-10-31T14:06:38;95504.72;;;5.38;87.64
49943;BME280;36011;53.362;58.948;2022-10-31T14:10:31;95500.31;;;5.26;87.50
49943;BME280;36011;53.362;58.948;2022-10-31T14:14:45;95495.09;;;5.26;87.93
49943;BME280;36011;53.362;58.948;2022-10-31T14:22:36;95498.22;;;5.31;87.75
49943;BME280;36011;53.362;58.948;2022-10-31T14:26:33;95501.88;;;5.29;87.42
49943;BME280;36011;53.362;58.948;2022-10-31T14:29:37;95492.94;;;5.33;87.66
49943;BME280;36011;53.362;58.948;2022-10-31T14:32:57;95490.94;;;5.36;87.90
49943;BME280;36011;53.362;58.948;2022-10-31T14:36:31;95487.38;;;5.37;87.28
49943;BME280;36011;53.362;58.948;2022-10-31T14:43:22;95488.88;;;5.42;87.46
49943;BME280;36011;53.362;58.948;2022-10-31T14:50:23;95493.06;;;5.44;87.92
49943;BME280;36011;53.362;58.948;2022-10-31T14:53:44;95483.56;;;5.56;87.37
49943;BME280;36011;53.362;58.948;2022-10-31T14:57:02;95471.16;;;5.47;87.79
49943;BME280;36011;53.362;58.948;2022-10-31T15:00:23;95469.25;;;5.49;87.88
49943;BME280;36011;53.362;58.948;2022-10-31T15:03:37;95470.09;;;5.62;88.21
49943;BME280;36011;53.362;58.948;2022-10-31T15:06:49;95471.97;;;5.60;88.21
49943;BME280;36011;53.362;58.948;2022-10-31T15:10:05;95463.41;;;5.71;87.77
49943;BME280;36011;53.362;58.948;2022-10-31T15:16:32;95459.25;;;5.81;87.73
49943;BME280;36011;53.362;58.948;2022-10-31T15:19:38;95452.56;;;5.77;87.88
49943;BME280;36011;53.362;58.948;2022-10-31T15:23:04;95451.72;;;5.76;87.90
49943;BME280;36011;53.362;58.948;2022-10-31T15:26:21;95462.38;;;5.73;88.03
49943;BME280;36011;53.362;58.948;2022-10-31T15:29:25;95455.06;;;5.78;88.15
49943;BME280;36011;53.362;58.948;2022-10-31T15:32:35;95449.03;;;5.78;88.68
49943;BME280;36011;53.362;58.948;2022-10-31T15:35:37;95444.44;;;5.81;88.96
49943;BME280;36011;53.362;58.948;2022-10-31T15:38:44;95435.44;;;5.85;88.17
49943;BME280;36011;53.362;58.948;2022-10-31T15:41:52;95444.53;;;5.93;88.11
49943;BME280;36011;53.362;58.948;2022-10-31T15:45:03;95438.16;;;5.97;88.21
49943;BME280;36011;53.362;58.948;2022-10-31T15:48:24;95435.84;;;6.05;87.70
49943;BME280;36011;53.362;58.948;2022-10-31T15:51:32;95434.38;;;5.88;88.19
49943;BME280;36011;53.362;58.948;2022-10-31T15:54:44;95423.22;;;5.99;88.28
49943;BME280;36011;53.362;58.948;2022-10-31T15:57:56;95422.41;;;5.98;88.48
49943;BME280;36011;53.362;58.948;2022-10-31T16:01:18;95416.44;;;6.09;88.35
49943;BME280;36011;53.362;58.948;2022-10-31T16:04:25;95422.59;;;6.08;88.28
49943;BME280;36011;53.362;58.948;2022-10-31T16:07:30;95428.75;;;6.07;88.46
49943;BME280;36011;53.362;58.948;2022-10-31T16:10:36;95420.50;;;6.13;88.80
49943;BME280;36011;53.362;58.948;2022-10-31T16:17:15;95425.84;;;6.12;88.74
49943;BME280;36011;53.362;58.948;2022-10-31T16:20:28;95433.09;;;6.32;88.20
49943;BME280;36011;53.362;58.948;2022-10-31T16:23:33;95442.84;;;6.17;88.47
49943;BME280;36011;53.362;58.948;2022-10-31T16:26:37;95427.03;;;6.32;88.37
49943;BME280;36011;53.362;58.948;2022-10-31T16:29:47;95423.69;;;6.29;88.35
49943;BME280;36011;53.362;58.948;2022-10-31T16:32:56;95422.75;;;6.30;88.42
49943;BME280;36011;53.362;58.948;2022-10-31T16:36:00;95425.13;;;6.34;88.35
49943;BME280;36011;53.362;58.948;2022-10-31T16:39:04;95422.81;;;6.42;88.38
49943;BME280;36011;53.362;58.948;2022-10-31T16:42:08;95418.31;;;6.44;88.10
49943;BME280;36011;53.362;58.948;2022-10-31T16:45:22;95426.31;;;6.53;87.88
49943;BME280;36011;53.362;58.948;2022-10-31T16:48:24;95416.72;;;6.54;88.27
49943;BME280;36011;53.362;58.948;2022-10-31T16:51:27;95411.00;;;6.49;88.33
49943;BME280;36011;53.362;58.948;2022-10-31T16:54:34;95419.66;;;6.49;88.49
49943;BME280;36011;53.362;58.948;2022-10-31T16:57:44;95410.25;;;6.47;88.26
49943;BME280;36011;53.362;58.948;2022-10-31T17:00:50;95407.81;;;6.57;88.12
49943;BME280;36011;53.362;58.948;2022-10-31T17:03:56;95403.91;;;6.62;87.75
49943;BME280;36011;53.362;58.948;2022-10-31T17:07:02;95407.47;;;6.61;87.67
49943;BME280;36011;53.362;58.948;2022-10-31T17:10:03;95410.22;;;6.60;87.90
49943;BME280;36011;53.362;58.948;2022-10-31T17:13:23;95418.44;;;6.66;87.51
49943;BME280;36011;53.362;58.948;2022-10-31T17:16:25;95403.91;;;6.62;87.51
49943;BME280;36011;53.362;58.948;2022-10-31T17:19:27;95406.03;;;6.57;87.71
49943;BME280;36011;53.362;58.948;2022-10-31T17:22:35;95416.78;;;6.65;87.37
49943;BME280;36011;53.362;58.948;2022-10-31T17:25:42;95409.53;;;6.69;87.31
49943;BME280;36011;53.362;58.948;2022-10-31T17:28:46;95406.69;;;6.72;86.92
49943;BME280;36011;53.362;58.948;2022-10-31T17:31:53;95415.59;;;6.69;86.82
49943;BME280;36011;53.362;58.948;2022-10-31T17:34:54;95418.94;;;6.71;87.02
49943;BME280;36011;53.362;58.948;2022-10-31T17:38:05;95409.34;;;6.59;87.08
49943;BME280;36011;53.362;58.948;2022-10-31T17:41:10;95398.63;;;6.51;87.86
49943;BME280;36011;53.362;58.948;2022-10-31T17:44:14;95405.19;;;6.57;87.72
49943;BME280;36011;53.362;58.948;2022-10-31T17:47:20;95395.59;;;6.57;87.85
49943;BME280;36011;53.362;58.948;2022-10-31T17:50:25;95409.34;;;6.59;87.41
49943;BME280;36011;53.362;58.948;2022-10-31T17:53:27;95400.38;;;6.63;87.43
49943;BME280;36011;53.362;58.948;2022-10-31T17:56:31;95392.25;;;6.55;87.74
49943;BME280;36011;53.362;58.948;2022-10-31T17:59:33;95403.06;;;6.62;87.43
49943;BME280;36011;53.362;58.948;2022-10-31T18:02:37;95391.69;;;6.63;87.09
49943;BME280;36011;53.362;58.948;2022-10-31T18:05:47;95393.69;;;6.59;87.70
49943;BME280;36011;53.362;58.948;2022-10-31T18:08:53;95388.44;;;6.59;87.46
49943;BME280;36011;53.362;58.948;2022-10-31T18:12:01;95384.69;;;6.63;86.92
49943;BME280;36011;53.362;58.948;2022-10-31T18:15:03;95375.06;;;6.64;87.33
49943;BME280;36011;53.362;58.948;2022-10-31T18:18:10;95392.63;;;6.62;87.19
49943;BME280;36011;53.362;58.948;2022-10-31T18:21:14;95380.06;;;6.67;86.97
49943;BME280;36011;53.362;58.948;2022-10-31T18:24:19;95384.78;;;6.62;87.14
49943;BME280;36011;53.362;58.948;2022-10-31T18:27:20;95384.41;;;6.55;87.34
49943;BME280;36011;53.362;58.948;2022-10-31T18:30:27;95386.78;;;6.58;87.37
49943;BME280;36011;53.362;58.948;2022-10-31T18:33:30;95394.19;;;6.64;87.11
49943;BME280;36011;53.362;58.948;2022-10-31T18:36:36;95396.28;;;6.83;86.60
49943;BME280;36011;53.362;58.948;2022-10-31T18:39:44;95386.91;;;6.81;86.06
49943;BME280;36011;53.362;58.948;2022-10-31T18:43:13;95381.44;;;6.84;86.19
49943;BME280;36011;53.362;58.948;2022-10-31T18:46:19;95391.03;;;6.72;86.46
49943;BME280;36011;53.362;58.948;2022-10-31T18:49:24;95378.78;;;6.72;86.15
49943;BME280;36011;53.362;58.948;2022-10-31T18:52:29;95384.47;;;6.66;86.64
49943;BME280;36011;53.362;58.948;2022-10-31T18:55:30;95372.81;;;6.70;86.39
49943;BME280;36011;53.362;58.948;2022-10-31T18:58:34;95378.63;;;6.63;86.60
49943;BME280;36011;53.362;58.948;2022-10-31T19:01:38;95360.53;;;6.84;86.00
49943;BME280;36011;53.362;58.948;2022-10-31T19:04:40;95360.47;;;6.72;86.39
49943;BME280;36011;53.362;58.948;2022-10-31T19:07:41;95353.47;;;6.73;86.61
49943;BME280;36011;53.362;58.948;2022-10-31T19:10:45;95362.88;;;6.75;85.73
49943;BME280;36011;53.362;58.948;2022-10-31T19:13:51;95369.16;;;6.73;85.68
49943;BME280;36011;53.362;58.948;2022-10-31T19:16:57;95367.59;;;6.70;86.12
49943;BME280;36011;53.362;58.948;2022-10-31T19:19:58;95373.19;;;6.66;86.09
49943;BME280;36011;53.362;58.948;2022-10-31T19:23:03;95360.97;;;6.78;85.85
49943;BME280;36011;53.362;58.948;2022-10-31T19:26:07;95375.66;;;6.67;86.39
49943;BME280;36011;53.362;58.948;2022-10-31T19:29:09;95386.16;;;6.79;86.16
49943;BME280;36011;53.362;58.948;2022-10-31T19:32:13;95379.28;;;6.78;85.96
49943;BME280;36011;53.362;58.948;2022-10-31T19:35:20;95386.63;;;6.72;85.79
49943;BME280;36011;53.362;58.948;2022-10-31T19:38:24;95371.44;;;6.78;85.91